Time;durP1;ratioP1;P1;durP2;ratioP2;P2;SDS_P1;SDS_P2;PMS_P1;PMS_P2;Temp;Humidity;BMP_temperature;BMP_pressure;BME280_temperature;BME280_humidity;BME280_pressure;Samples;Min_cycle;Max_cycle;Signal;HPM_P1;HPM_P2
2022/08/03 00:02:19;;;;;;;2.03;1.92;;;23.40;99.90;;;23.75;74.88;101385.41;5093621;28;20051;-64
2022/08/03 00:04:47;;;;;;;2.22;2.13;;;23.40;99.90;;;23.75;75.03;101390.81;5093427;28;20068;-64
2022/08/03 00:07:16;;;;;;;2.40;2.30;;;23.30;99.90;;;23.60;75.05;101361.88;5093488;28;20042;-64
2022/08/03 00:09:46;;;;;;;1.67;1.67;;;23.40;99.90;;;23.76;75.09;101373.69;5093191;28;20147;-64
2022/08/03 00:12:14;;;;;;;2.30;2.20;;;23.30;99.90;;;23.77;74.91;101375.41;5093392;28;20098;-64
2022/08/03 00:14:43;;;;;;;2.22;2.13;;;23.40;99.90;;;23.74;75.26;101372.00;5093333;28;20545;-64
2022/08/03 00:17:11;;;;;;;2.30;2.20;;;23.30;99.90;;;23.75;75.28;101380.00;5093115;28;20472;-64
2022/08/03 00:19:39;;;;;;;2.05;1.95;;;23.30;99.90;;;23.74;75.23;101378.28;5093052;28;20067;-64
2022/08/03 00:22:08;;;;;;;2.17;2.08;;;23.30;99.90;;;23.72;75.44;101379.28;5093057;28;20040;-64
2022/08/03 00:24:36;;;;;;;2.35;2.25;;;23.30;99.90;;;23.71;75.44;101372.16;5093267;28;20040;-64
2022/08/03 00:27:06;;;;;;;2.05;1.95;;;23.30;99.90;;;23.72;75.65;101372.06;5092955;28;20117;-64
2022/08/03 00:29:34;;;;;;;2.38;2.28;;;23.30;99.90;;;23.69;75.73;101372.22;5074948;28;20048;-64
2022/08/03 00:32:22;;;;;;;2.50;2.40;;;23.30;99.90;;;23.70;75.72;101365.88;5092974;28;20132;-64
2022/08/03 00:34:52;;;;;;;2.20;2.10;;;23.30;99.90;;;23.67;75.59;101360.63;5092793;28;20040;-64
2022/08/03 00:37:26;;;;;;;2.47;2.38;;;23.30;99.90;;;23.58;76.08;101362.91;5093084;28;20048;-64
2022/08/03 00:40:12;;;;;;;2.28;2.17;;;23.20;99.90;;;23.52;76.24;101347.88;5092785;28;20079;-64
2022/08/03 00:42:52;;;;;;;2.40;2.30;;;23.20;99.90;;;23.60;76.12;101361.00;5074756;28;20044;-64
2022/08/03 00:45:23;;;;;;;2.45;2.35;;;23.20;99.90;;;23.62;76.16;101367.19;5092854;28;20366;-64
2022/08/03 00:47:52;;;;;;;2.35;2.25;;;23.20;99.90;;;23.60;76.48;101366.41;5092703;28;20102;-65
2022/08/03 00:50:22;;;;;;;2.15;2.05;;;23.20;99.90;;;23.54;76.58;101353.22;5092678;28;20040;-64
2022/08/03 00:52:53;;;;;;;2.28;2.17;;;23.20;99.90;;;23.54;76.84;101355.94;5092496;28;20044;-64
2022/08/03 00:55:22;;;;;;;2.22;2.13;;;23.10;99.90;;;23.49;77.04;101342.66;5092610;28;20056;-64
2022/08/03 00:57:53;;;;;;;2.50;2.40;;;23.10;99.90;;;23.48;77.25;101348.97;5092615;28;20048;-64
2022/08/03 01:00:24;;;;;;;2.20;2.10;;;23.10;99.90;;;23.43;77.34;101336.66;5092588;28;20046;-64
2022/08/03 01:02:53;;;;;;;2.20;2.10;;;23.10;99.90;;;23.46;77.45;101331.97;5093038;28;20048;-64
2022/08/03 01:05:22;;;;;;;2.40;2.30;;;23.10;99.90;;;23.42;77.29;101332.22;5074489;28;20040;-64
2022/08/03 01:08:03;;;;;;;1.95;1.85;;;23.10;99.90;;;23.29;77.54;101318.41;5092928;28;20126;-64
2022/08/03 01:10:41;;;;;;;4.18;3.78;;;23.00;99.90;;;23.39;77.81;101335.94;5092731;28;20064;-63
2022/08/03 01:13:25;;;;;;;2.53;2.42;;;23.00;99.90;;;23.38;77.31;101336.91;5092655;28;20048;-64
2022/08/03 01:16:19;;;;;;;2.30;2.20;;;23.00;99.90;;;23.39;77.57;101344.03;5092423;28;20044;-63
2022/08/03 01:19:01;;;;;;;2.40;2.30;;;23.00;99.90;;;23.38;77.46;101333.34;5092440;28;20048;-63
2022/08/03 01:21:40;;;;;;;2.25;2.15;;;23.00;99.90;;;23.41;77.30;101343.97;5074492;28;20138;-64
2022/08/03 01:24:34;;;;;;;2.70;2.60;;;23.10;99.90;;;23.42;77.42;101333.13;5092571;28;20052;-64
2022/08/03 01:27:09;;;;;;;2.30;2.20;;;23.10;99.90;;;23.40;77.29;101340.41;5092462;28;20374;-64
2022/08/03 01:30:00;;;;;;;2.50;2.40;;;23.10;99.90;;;23.33;77.08;101338.06;5092374;28;20048;-64
2022/08/03 01:32:40;;;;;;;2.13;2.03;;;23.00;99.90;;;23.30;77.30;101339.09;5092385;28;20040;-64
2022/08/03 01:35:33;;;;;;;2.35;2.25;;;23.00;99.90;;;23.29;77.11;101331.91;5092326;28;20495;-64
2022/08/03 01:38:11;;;;;;;2.67;2.58;;;23.00;99.90;;;23.31;77.30;101340.84;5092424;28;20043;-64
2022/08/03 01:40:41;;;;;;;2.22;2.13;;;22.90;99.90;;;23.34;77.13;101340.72;5092103;28;20060;-63
2022/08/03 01:43:15;;;;;;;2.50;2.40;;;22.90;99.90;;;22.71;76.91;101230.47;5092281;28;20078;-63
2022/08/03 01:46:05;;;;;;;2.35;2.25;;;22.90;99.90;;;23.21;77.31;101335.00;5092436;28;20139;-63
2022/08/03 01:48:36;;;;;;;2.40;2.30;;;22.90;99.90;;;23.18;77.54;101327.06;5092263;28;20098;-64
2022/08/03 01:51:06;;;;;;;2.55;2.45;;;22.80;99.90;;;23.12;78.15;101329.16;5092385;28;20097;-64
2022/08/03 01:53:36;;;;;;;2.20;2.10;;;22.80;99.90;;;22.58;78.11;101240.97;5092182;28;20043;-64
2022/08/03 01:56:06;;;;;;;2.58;2.47;;;22.70;99.90;;;23.05;78.47;101323.19;5073967;28;20044;-64
2022/08/03 01:58:35;;;;;;;;;;;22.70;99.90;;;22.94;78.64;101311.16;5092556;28;20064;-63
2022/08/03 02:01:07;;;;;;;2.60;2.50;;;22.70;99.90;;;23.02;78.83;101327.84;5091036;28;19924;-64
2022/08/03 02:03:39;;;;;;;2.58;2.47;;;22.60;99.90;;;22.96;79.11;101312.84;5092899;28;20120;-64
2022/08/03 02:06:32;;;;;;;2.28;2.17;;;22.60;99.90;;;22.86;79.57;101319.63;5077544;28;20047;-64
2022/08/03 02:09:22;;;;;;;2.40;2.30;;;22.50;99.90;;;22.86;79.90;101316.06;5077649;28;20052;-64
2022/08/03 02:11:52;;;;;;;2.40;2.30;;;22.50;99.90;;;22.83;79.84;101317.09;5095655;28;20048;-64
2022/08/03 02:14:22;;;;;;;2.50;2.40;;;22.50;99.90;;;22.83;80.08;101314.38;5095926;28;20097;-64
2022/08/03 02:16:52;;;;;;;2.47;2.38;;;22.50;99.90;;;22.80;79.79;101310.97;5095588;28;20044;-64
2022/08/03 02:19:22;;;;;;;2.40;2.30;;;22.40;99.90;;;22.81;79.71;101318.09;5095428;28;20506;-64
2022/08/03 02:21:53;;;;;;;2.47;2.38;;;22.50;99.90;;;22.77;79.72;101311.09;5095315;28;20400;-64
2022/08/03 02:24:29;;;;;;;3.00;2.90;;;22.50;99.90;;;22.70;79.55;101309.66;5095379;28;20040;-64
2022/08/03 02:26:58;;;;;;;2.28;2.17;;;22.40;99.90;;;22.66;79.74;101308.94;5095318;28;20501;-64
2022/08/03 02:29:32;;;;;;;2.60;2.50;;;22.30;99.90;;;22.63;79.77;101313.59;5095239;28;20131;-64
2022/08/03 02:32:14;;;;;;;2.35;2.25;;;22.30;99.90;;;22.60;79.72;101311.03;5095303;28;20048;-64
2022/08/03 02:34:46;;;;;;;3.13;3.03;;;22.30;99.90;;;22.61;79.86;101310.09;5077104;28;20455;-63
2022/08/03 02:37:18;;;;;;;2.35;2.25;;;22.30;99.90;;;22.62;79.92;101311.81;5095001;28;20382;-63
2022/08/03 02:39:50;;;;;;;3.28;3.10;;;22.30;99.90;;;22.58;80.28;101308.41;5095046;28;20196;-63
2022/08/03 02:42:22;;;;;;;2.28;2.17;;;22.30;99.90;;;22.64;80.04;101305.44;5094914;28;20050;-63
2022/08/03 02:44:53;;;;;;;2.70;2.60;;;22.30;99.90;;;22.65;80.15;101304.47;5076943;28;20127;-63
2022/08/03 02:47:23;;;;;;;1.92;1.83;;;22.30;99.90;;;22.67;80.14;101305.25;5095014;28;20056;-63
2022/08/03 02:49:56;;;;;;;2.17;2.08;;;22.30;99.90;;;22.70;80.40;101305.13;5094830;28;20558;-63
2022/08/03 02:52:28;;;;;;;2.30;2.20;;;22.30;99.90;;;22.51;80.42;101271.88;5094787;28;20044;-63
2022/08/03 02:54:59;;;;;;;2.20;2.10;;;22.30;99.90;;;22.68;80.41;101295.34;5094923;28;20132;-63
2022/08/03 02:57:30;;;;;;;3.17;3.03;;;22.30;99.90;;;22.69;80.71;101297.09;5094753;28;20443;-63
2022/08/03 03:00:00;;;;;;;2.40;2.30;;;22.30;99.90;;;22.64;80.50;101296.44;5076605;28;20101;-63
2022/08/03 03:02:31;;;;;;;2.70;2.60;;;22.30;99.90;;;22.49;80.80;101267.47;5094523;28;20086;-63
2022/08/03 03:05:01;;;;;;;2.42;2.33;;;22.30;99.90;;;22.59;80.76;101287.72;5094559;28;20048;-63
2022/08/03 03:07:50;;;;;;;2.40;2.30;;;22.20;99.90;;;22.59;80.77;101282.31;5094587;28;20051;-63
2022/08/03 03:10:22;;;;;;;2.85;2.75;;;22.20;99.90;;;22.60;80.84;101289.44;5094456;28;20044;-63
2022/08/03 03:12:54;;;;;;;2.70;2.60;;;22.30;99.90;;;22.57;80.94;101292.31;5094400;28;20078;-63
2022/08/03 03:15:23;;;;;;;2.50;2.40;;;22.20;99.90;;;22.43;80.83;101274.91;5094253;28;20149;-63
2022/08/03 03:17:54;;;;;;;2.40;2.30;;;22.20;99.90;;;22.57;80.76;101298.56;5075982;28;20048;-63
2022/08/03 03:20:23;;;;;;;2.83;2.72;;;22.20;99.90;;;22.60;80.56;101297.53;5076228;28;20048;-63
2022/08/03 03:23:00;;;;;;;2.45;2.35;;;22.20;99.90;;;22.57;80.58;101298.56;5094585;28;20048;-63
2022/08/03 03:25:31;;;;;;;2.63;2.53;;;22.30;99.90;;;22.56;80.49;101298.59;5094097;28;20122;-63
2022/08/03 03:28:00;;;;;;;2.22;2.13;;;22.20;99.90;;;22.57;80.65;101300.41;5094112;28;20464;-63
2022/08/03 03:30:29;;;;;;;4.30;3.78;;;22.20;99.90;;;22.44;80.80;101284.75;5094152;28;20054;-63
2022/08/03 03:32:59;;;;;;;2.22;2.13;;;22.20;99.90;;;22.53;81.06;101293.34;5094133;28;20040;-64
2022/08/03 03:35:28;;;;;;;2.63;2.53;;;22.20;99.90;;;22.51;81.46;101295.25;5093856;28;20135;-64
2022/08/03 03:37:57;;;;;;;2.60;2.50;;;22.20;99.90;;;22.50;81.45;101293.47;5093723;28;20089;-64
2022/08/03 03:40:26;;;;;;;2.15;2.05;;;22.10;99.90;;;22.49;81.40;101295.34;5093805;28;20078;-64
2022/08/03 03:42:54;;;;;;;2.30;2.20;;;22.10;99.90;;;22.50;81.44;101302.47;5093658;28;20059;-63
2022/08/03 03:45:24;;;;;;;2.35;2.25;;;22.10;99.90;;;22.50;81.35;101305.16;5093822;28;20086;-64
2022/08/03 03:47:52;;;;;;;2.78;2.67;;;22.10;99.90;;;22.43;81.68;101301.84;5094088;28;20062;-64
2022/08/03 03:50:22;;;;;;;2.72;2.63;;;22.10;99.90;;;22.44;81.74;101303.63;5075484;28;20052;-64
2022/08/03 03:52:51;;;;;;;2.85;2.75;;;22.10;99.90;;;22.44;81.72;101310.81;5093638;28;20056;-64
2022/08/03 03:55:19;;;;;;;2.35;2.25;;;22.10;99.90;;;22.44;81.89;101303.63;5093379;28;20040;-64
2022/08/03 03:57:48;;;;;;;2.63;2.53;;;22.10;99.90;;;22.45;81.81;101301.81;5093609;28;20040;-64
2022/08/03 04:00:18;;;;;;;2.22;2.13;;;22.10;99.90;;;22.44;81.93;101303.63;5093529;28;20071;-64
2022/08/03 04:02:47;;;;;;;2.45;2.35;;;22.10;99.90;;;22.44;81.79;101300.94;5093345;28;20074;-64
2022/08/03 04:11:15;;;;;;;2.13;2.03;;;22.10;99.90;;;22.42;81.98;101302.81;5093273;28;20045;-62
2022/08/03 04:13:50;;;;;;;2.45;2.35;;;22.10;99.90;;;22.40;82.18;101307.41;5093282;28;20075;-62
2022/08/03 04:16:23;;;;;;;2.13;2.03;;;22.10;99.90;;;22.37;82.27;101301.28;5074912;28;20044;-61
2022/08/03 04:18:55;;;;;;;2.80;2.70;;;22.00;99.90;;;22.37;82.31;101307.56;5093208;28;20182;-61
2022/08/03 04:21:25;;;;;;;2.50;2.40;;;22.00;99.90;;;22.31;82.29;101296.16;5093220;28;20540;-61
2022/08/03 04:24:00;;;;;;;2.60;2.50;;;22.00;99.90;;;22.33;82.77;101310.44;5093181;28;20044;-61
2022/08/03 04:26:34;;;;;;;2.25;2.15;;;22.00;99.90;;;22.34;82.82;101312.19;5092886;28;20098;-61
2022/08/03 04:29:04;;;;;;;2.67;2.58;;;22.00;99.90;;;22.22;82.70;101283.97;5093208;28;20143;-61
2022/08/03 04:31:33;;;;;;;2.15;2.05;;;22.00;99.90;;;22.33;82.45;101305.94;5093154;28;20040;-61
2022/08/03 04:34:02;;;;;;;2.33;2.22;;;22.00;99.90;;;22.29;82.59;101303.44;5092968;28;20052;-61
2022/08/03 04:36:38;;;;;;;2.40;2.30;;;22.00;99.90;;;22.31;82.86;101313.22;5092861;28;20051;-60
2022/08/03 04:39:14;;;;;;;2.55;2.45;;;21.90;99.90;;;22.30;82.87;101306.06;5092713;28;20074;-60
2022/08/03 04:41:45;;;;;;;2.50;2.40;;;22.00;99.90;;;22.32;83.03;101309.56;5074787;28;20107;-61
2022/08/03 04:44:39;;;;;;;2.10;2.00;;;21.90;99.90;;;22.32;82.84;101311.38;5092809;28;20044;-61
2022/08/03 04:47:08;;;;;;;2.70;2.60;;;21.90;99.90;;;22.37;82.85;101317.47;5074680;28;20580;-62
2022/08/03 04:49:38;;;;;;;2.65;2.55;;;21.90;99.90;;;22.40;82.65;101320.00;5092654;28;20040;-61
2022/08/03 04:52:08;;;;;;;2.67;2.58;;;22.00;99.90;;;22.37;82.94;101315.66;5075080;28;20507;-61
2022/08/03 04:54:42;;;;;;;2.28;2.17;;;22.00;99.90;;;22.37;82.88;101323.75;5092658;28;20044;-61
2022/08/03 04:57:18;;;;;;;2.58;2.47;;;22.00;99.90;;;22.38;83.15;101320.06;5092687;28;20123;-61
2022/08/03 04:59:53;;;;;;;2.58;2.47;;;22.00;99.90;;;22.36;83.14;101321.09;5092637;28;20469;-61
2022/08/03 05:02:30;;;;;;;2.20;2.10;;;22.00;99.90;;;22.36;83.27;101332.75;5092681;28;20044;-61
2022/08/03 05:04:59;;;;;;;11.00;4.85;;;22.00;99.90;;;22.38;83.29;101335.38;5092717;28;20044;-61
2022/08/03 05:07:27;;;;;;;2.30;2.20;;;22.00;99.90;;;22.39;83.37;101338.03;5092546;28;20122;-61
2022/08/03 05:10:07;;;;;;;6.70;4.45;;;22.00;99.90;;;22.44;83.26;101341.38;5092528;28;20501;-61
2022/08/03 05:12:45;;;;;;;3.47;3.33;;;22.10;99.90;;;22.45;83.19;101347.66;5092438;28;20062;-60
2022/08/03 05:15:14;;;;;;;2.40;2.30;;;22.10;99.90;;;22.47;83.39;101352.97;5092882;28;20040;-60
2022/08/03 05:17:43;;;;;;;2.30;2.20;;;22.10;99.90;;;22.44;83.70;101341.38;5092315;28;20047;-61
2022/08/03 05:20:12;;;;;;;2.47;2.38;;;22.10;99.90;;;22.44;83.84;101365.63;5092536;28;20135;-60
2022/08/03 05:22:43;;;;;;;2.40;2.30;;;22.10;99.90;;;22.55;83.70;101348.09;5074335;28;20048;-61
2022/08/03 05:25:13;;;;;;;2.00;1.90;;;22.10;99.90;;;22.52;83.94;101348.22;5092548;28;20105;-61
2022/08/03 05:27:47;;;;;;;2.47;2.38;;;22.20;99.90;;;22.52;84.16;101351.81;5092455;28;20119;-61
2022/08/03 05:30:16;;;;;;;2.20;2.10;;;22.20;99.90;;;22.55;84.24;101353.50;5092725;28;20040;-61
2022/08/03 05:33:02;;;;;;;2.53;2.42;;;22.20;99.90;;;22.60;84.39;101346.09;5092322;28;20052;-61
2022/08/03 05:35:31;;;;;;;2.97;2.88;;;22.20;99.90;;;22.59;84.30;101349.75;5074084;28;20075;-61
2022/08/03 05:38:19;;;;;;;2.65;2.55;;;22.20;99.90;;;22.65;84.31;101344.91;5074637;28;20532;-61
2022/08/03 05:41:03;;;;;;;2.63;2.53;;;22.30;99.90;;;22.55;84.54;101350.78;5077675;28;20063;-62
2022/08/03 05:43:52;;;;;;;2.58;2.47;;;22.10;99.90;;;22.59;84.78;101349.75;5095771;28;20055;-60
2022/08/03 05:46:21;;;;;;;10.10;4.85;;;22.20;99.90;;;22.61;84.96;101351.41;5096132;28;20122;-61
2022/08/03 05:48:50;;;;;;;2.50;2.40;;;22.30;99.90;;;22.66;84.94;101357.47;5095670;28;20481;-61
2022/08/03 05:51:18;;;;;;;2.50;2.40;;;22.30;99.90;;;22.67;84.84;101359.22;5095241;28;20130;-60
2022/08/03 05:53:47;;;;;;;2.25;2.15;;;22.30;99.90;;;22.64;85.09;101355.78;5077374;28;20056;-61
2022/08/03 05:56:16;;;;;;;2.70;2.60;;;22.30;99.90;;;22.52;85.39;101353.63;5095470;28;20043;-61
2022/08/03 05:58:46;;;;;;;3.70;2.60;;;22.20;99.90;;;22.52;85.64;101348.22;5095676;28;20455;-62
2022/08/03 06:01:15;;;;;;;2.30;2.20;;;22.20;99.90;;;22.47;85.81;101353.84;5095511;28;20122;-62
2022/08/03 06:03:44;;;;;;;4.65;4.38;;;22.10;99.90;;;22.48;85.75;101344.78;5095494;28;20074;-62
2022/08/03 06:06:13;;;;;;;2.40;2.30;;;22.10;99.90;;;22.52;85.74;101346.41;5095857;28;20105;-63
2022/08/03 06:08:42;;;;;;;2.60;2.50;;;22.20;99.90;;;22.46;85.52;101352.09;5095551;28;20062;-62
2022/08/03 06:11:10;;;;;;;2.63;2.53;;;22.10;99.90;;;22.50;85.80;101350.13;5095436;28;20046;-62
2022/08/03 06:13:41;;;;;;;11.57;3.78;;;22.10;99.90;;;22.53;85.67;101350.00;5095856;28;20055;-62
2022/08/03 06:16:09;;;;;;;3.00;2.90;;;22.20;99.90;;;22.56;85.53;101349.84;5095365;28;20087;-63
2022/08/03 06:18:39;;;;;;;2.70;2.60;;;22.20;99.90;;;22.62;85.44;101355.88;5077278;28;20523;-62
2022/08/03 06:21:09;;;;;;;2.65;2.55;;;22.20;99.90;;;22.66;85.38;101356.59;5095316;28;20097;-62
2022/08/03 06:23:44;;;;;;;2.28;2.17;;;22.30;99.90;;;22.66;85.43;101356.59;5095401;28;20059;-61
2022/08/03 06:26:27;;;;;;;2.45;2.35;;;22.30;99.90;;;22.77;84.99;101363.25;5095360;28;20052;-62
2022/08/03 06:28:57;;;;;;;2.83;2.72;;;22.40;99.90;;;22.78;84.94;101356.03;5095132;28;20503;-62
2022/08/03 06:31:28;;;;;;;2.97;2.88;;;22.40;99.90;;;22.80;84.69;101359.53;5095215;28;20048;-62
2022/08/03 06:34:03;;;;;;;2.78;2.67;;;22.40;99.90;;;22.80;84.50;101360.38;5095071;28;20109;-62
2022/08/03 06:36:51;;;;;;;;;;;22.40;99.90;;;22.82;84.45;101361.19;5095586;28;20409;-62
2022/08/03 06:39:21;;;;;;;2.63;2.53;;;22.40;99.90;;;22.82;84.42;101368.44;5094969;28;19920;-62
2022/08/03 06:41:52;;;;;;;6.47;3.80;;;22.50;99.90;;;22.80;84.63;101370.31;5076742;28;20052;-62
2022/08/03 06:44:22;;;;;;;2.20;2.10;;;22.40;99.90;;;22.89;84.32;101372.59;5076577;28;20467;-63
2022/08/03 06:46:51;;;;;;;2.50;2.40;;;22.50;99.90;;;22.84;84.49;101369.25;5094843;28;20064;-62
2022/08/03 06:49:19;;;;;;;2.53;2.42;;;22.40;99.90;;;22.86;84.44;101359.25;5076213;28;20047;-62
2022/08/03 06:51:49;;;;;;;2.25;2.15;;;22.50;99.90;;;22.87;84.14;101366.38;5094757;28;20044;-62
2022/08/03 06:54:35;;;;;;;2.40;2.30;;;22.50;99.90;;;22.90;84.16;101361.72;5094829;28;20048;-62
2022/08/03 06:57:06;;;;;;;2.58;2.47;;;22.60;99.90;;;22.89;83.96;101377.97;5094524;28;20031;-62
2022/08/03 06:59:36;;;;;;;3.22;2.95;;;22.50;99.90;;;22.91;84.09;101376.09;5094632;28;20044;-62
2022/08/03 07:02:25;;;;;;;3.58;3.38;;;22.50;99.90;;;22.32;83.96;101261.03;5094678;28;20055;-65
2022/08/03 07:04:56;;;;;;;2.40;2.30;;;22.60;99.90;;;22.93;83.69;101377.78;5094548;28;20507;-61
2022/08/03 07:07:25;;;;;;;2.85;2.75;;;22.60;99.90;;;22.96;83.61;101380.31;5094633;28;20047;-62
2022/08/03 07:09:53;;;;;;;2.72;2.63;;;22.60;99.90;;;22.98;83.85;101374.84;5094855;28;20047;-62
2022/08/03 07:12:26;;;;;;;10.30;3.95;;;22.60;99.90;;;22.99;83.75;101382.88;5094450;28;20070;-62
2022/08/03 07:14:58;;;;;;;2.47;2.38;;;22.60;99.90;;;22.97;83.13;101386.59;5094581;28;20485;-61
2022/08/03 07:17:31;;;;;;;2.67;2.47;;;22.60;99.90;;;22.93;82.80;101385.88;5094319;28;20048;-62
2022/08/03 07:20:00;;;;;;;3.45;3.28;;;22.60;99.90;;;23.03;82.67;101397.09;5094153;28;20105;-62
2022/08/03 07:22:28;;;;;;;2.65;2.55;;;22.70;99.90;;;23.04;82.47;101401.53;5094183;28;20070;-62
2022/08/03 07:24:57;;;;;;;3.42;3.22;;;22.70;99.90;;;23.11;81.94;101397.63;5076085;28;20463;-61
2022/08/03 07:27:27;;;;;;;3.08;2.97;;;22.70;99.90;;;23.16;82.06;101409.94;5094003;28;20101;-62
2022/08/03 07:29:57;;;;;;;3.08;2.97;;;22.80;99.90;;;23.22;82.15;101408.78;5094414;28;20143;-62
2022/08/03 07:32:27;;;;;;;2.40;2.30;;;22.90;99.90;;;23.22;82.10;101412.34;5093922;28;20123;-62
2022/08/03 07:34:55;;;;;;;3.00;2.88;;;22.90;99.90;;;23.31;81.90;101416.44;5094083;28;20165;-62
2022/08/03 07:37:29;;;;;;;2.22;2.13;;;22.90;99.90;;;23.39;81.64;101408.84;5094033;28;20119;-63
2022/08/03 07:39:59;;;;;;;2.65;2.55;;;23.00;99.90;;;23.41;81.26;101403.38;5093720;28;20058;-65
2022/08/03 07:42:27;;;;;;;3.03;2.83;;;23.10;99.90;;;23.53;80.68;101417.19;5093895;28;20040;-66
2022/08/03 07:44:58;;;;;;;2.70;2.60;;;23.20;99.90;;;23.49;80.43;101406.59;5093757;28;20044;-62
2022/08/03 07:47:29;;;;;;;;;;;23.20;99.90;;;23.61;79.98;101422.19;5094254;28;20579;-64
2022/08/03 07:50:05;;;;;;;2.92;2.83;;;23.20;99.90;;;23.63;79.77;101415.78;5093876;28;19965;-66
2022/08/03 07:52:48;;;;;;;5.07;4.78;;;23.30;99.90;;;23.71;79.81;101418.09;5093760;28;20032;-65
2022/08/03 07:55:18;;;;;;;5.32;3.15;;;23.30;99.90;;;23.78;79.50;101424.94;5093566;28;20048;-65
2022/08/03 07:57:46;;;;;;;19.23;3.47;;;23.40;99.90;;;23.86;79.11;101430.84;5093559;28;20067;-65
2022/08/03 08:00:19;;;;;;;2.40;2.30;;;23.50;99.90;;;23.93;79.21;101424.16;5093591;28;20487;-65
2022/08/03 08:02:47;;;;;;;2.55;2.45;;;23.50;99.90;;;24.01;78.98;101428.22;5092961;28;20040;-64
2022/08/03 08:05:15;;;;;;;2.55;2.45;;;23.60;99.90;;;24.21;78.94;101429.06;5093654;28;20052;-63
2022/08/03 08:07:44;;;;;;;2.88;2.67;;;23.80;99.90;;;24.35;77.72;101431.94;5093293;28;20548;-63
2022/08/03 08:10:19;;;;;;;2.38;2.28;;;24.00;99.90;;;24.40;76.91;101421.75;5093307;28;20051;-60
2022/08/03 08:12:48;;;;;;;2.35;2.25;;;24.10;99.90;;;24.37;76.15;101424.63;5093267;28;20066;-62
2022/08/03 08:15:17;;;;;;;2.10;2.00;;;24.10;99.90;;;24.51;76.45;101424.75;5093189;28;20044;-61
2022/08/03 08:17:49;;;;;;;3.43;3.20;;;24.10;99.90;;;24.60;76.30;101430.53;5093150;28;20105;-61
2022/08/03 08:20:21;;;;;;;2.88;2.78;;;24.20;99.90;;;24.68;76.52;101428.28;5092960;28;20369;-61
2022/08/03 08:22:57;;;;;;;2.47;2.38;;;24.30;99.90;;;24.70;76.13;101428.25;5093127;28;20094;-60
2022/08/03 08:25:30;;;;;;;2.38;2.28;;;24.40;99.90;;;24.73;75.22;101422.69;5093122;28;20504;-61
2022/08/03 08:28:01;;;;;;;1.85;1.80;;;24.40;99.90;;;24.91;75.06;101427.97;5093170;28;20040;-62
2022/08/03 08:30:51;;;;;;;2.50;2.40;;;24.50;99.90;;;25.04;74.38;101420.06;5092877;28;20050;-61
2022/08/03 08:33:19;;;;;;;2.40;2.30;;;24.70;99.90;;;25.07;73.74;101424.44;5093059;28;20072;-60
2022/08/03 08:35:53;;;;;;;1.98;1.88;;;24.70;99.90;;;25.15;72.73;101425.72;5092884;28;20512;-62
2022/08/03 08:38:22;;;;;;;3.55;3.25;;;24.80;99.90;;;25.30;72.65;101427.56;5093050;28;20039;-62
2022/08/03 08:40:51;;;;;;;2.00;1.90;;;25.00;99.90;;;25.40;71.93;101422.53;5092891;28;20099;-62
2022/08/03 08:43:19;;;;;;;2.20;2.10;;;25.10;99.90;;;25.50;71.82;101421.94;5092691;28;20615;-62
2022/08/03 08:45:50;;;;;;;2.80;2.70;;;25.20;99.90;;;25.52;71.53;101422.72;5092730;28;20051;-63
2022/08/03 08:48:24;;;;;;;2.53;2.38;;;25.20;99.90;;;25.57;71.61;101428.75;5092834;28;20075;-65
2022/08/03 08:50:57;;;;;;;2.85;2.75;;;25.20;99.90;;;25.53;70.89;101426.31;5093151;28;20056;-66
2022/08/03 08:53:29;;;;;;;5.18;3.97;;;25.20;99.90;;;25.62;71.42;101428.50;5093080;28;20111;-65
2022/08/03 08:56:00;;;;;;;3.35;2.22;;;25.20;99.90;;;25.71;71.67;101431.53;5092698;28;20111;-65
2022/08/03 08:58:37;;;;;;;8.18;7.35;;;25.40;99.90;;;25.82;70.92;101434.50;5092865;28;20048;-65
2022/08/03 09:01:07;;;;;;;2.85;2.38;;;25.50;99.90;;;25.97;70.74;101435.44;5092543;28;20047;-65
2022/08/03 09:03:36;;;;;;;3.70;3.50;;;25.60;99.90;;;26.11;68.86;101453.66;5092648;28;20412;-66
2022/08/03 09:06:05;;;;;;;2.13;2.03;;;25.80;99.90;;;26.10;68.81;101451.88;5074323;28;20060;-66
2022/08/03 09:08:34;;;;;;;2.10;2.00;;;25.80;99.90;;;26.08;69.37;101451.97;5092811;28;20463;-68
2022/08/03 09:11:02;;;;;;;2.00;1.90;;;25.80;99.90;;;26.08;68.74;101454.69;5093117;28;20109;-68
2022/08/03 09:13:32;;;;;;;4.65;3.83;;;25.70;99.90;;;26.06;68.59;101445.78;5095478;28;20075;-68
2022/08/03 09:16:13;;;;;;;1.77;1.77;;;25.80;99.90;;;26.18;68.16;101455.91;5096543;28;20580;-64
2022/08/03 09:18:44;;;;;;;2.45;2.35;;;25.80;99.90;;;26.28;68.71;101456.22;5096503;28;20098;-64
2022/08/03 09:21:13;;;;;;;;;;;26.00;99.90;;;26.40;67.95;101458.19;5096874;28;20516;-64
2022/08/03 09:24:00;;;;;;;3.10;2.95;;;26.00;99.90;;;26.51;67.62;101440.31;5096646;28;19924;-64
2022/08/03 09:26:33;;;;;;;2.00;1.90;;;26.30;99.90;;;26.91;66.83;101462.28;5096506;28;20048;-64
2022/08/03 09:29:03;;;;;;;;;;;26.60;99.90;;;27.06;66.01;101466.75;5078575;28;20055;-64
2022/08/03 09:31:45;;;;;;;1.77;1.75;;;26.70;99.90;;;27.01;64.96;101468.88;5096575;28;19924;-64
2022/08/03 09:34:16;;;;;;;2.17;2.08;;;26.70;99.90;;;27.06;65.52;101458.63;5096385;28;20512;-64
2022/08/03 09:36:46;;;;;;;1.80;1.80;;;26.80;99.90;;;27.02;65.11;101460.66;5078182;28;20044;-64
2022/08/03 09:39:16;;;;;;;1.83;1.83;;;26.70;99.90;;;27.22;65.46;101468.41;5096327;28;20145;-64
2022/08/03 09:41:47;;;;;;;1.83;1.83;;;26.90;99.90;;;27.24;65.67;101462.84;5095892;28;20048;-65
2022/08/03 09:44:16;;;;;;;1.42;1.42;;;26.90;99.90;;;27.46;63.95;101466.88;5096260;28;20048;-64
2022/08/03 09:46:56;;;;;;;23.20;21.45;;;27.10;99.90;;;27.36;63.45;101435.81;5096446;28;20097;-64
2022/08/03 09:49:25;;;;;;;1.88;1.77;;;27.20;99.90;;;27.41;63.74;101469.00;5095991;28;20127;-64
2022/08/03 09:51:54;;;;;;;1.90;1.80;;;27.20;99.90;;;27.24;64.46;101450.16;5095905;28;20463;-64
2022/08/03 09:54:43;;;;;;;1.73;1.73;;;27.00;99.90;;;27.29;64.12;101453.44;5095889;28;20044;-64
2022/08/03 09:57:22;;;;;;;1.98;1.90;;;27.00;99.90;;;27.24;64.39;101465.56;5095978;28;20050;-64
2022/08/03 09:59:52;;;;;;;4.00;2.72;;;26.90;99.90;;;27.15;63.94;101448.03;5095875;28;20090;-64
2022/08/03 10:02:43;;;;;;;1.70;1.70;;;26.90;99.90;;;27.01;64.79;101442.59;5095719;28;20135;-64
2022/08/03 10:05:13;;;;;;;1.70;1.70;;;26.80;99.90;;;27.02;65.44;101454.34;5095944;28;20052;-64
2022/08/03 10:07:49;;;;;;;1.75;1.70;;;26.70;99.90;;;27.20;65.86;101459.47;5095717;28;20051;-64
2022/08/03 10:10:18;;;;;;;1.75;1.75;;;26.90;99.90;;;27.32;65.88;101442.41;5095671;28;20071;-64
2022/08/03 10:13:00;;;;;;;1.40;1.40;;;27.00;99.90;;;27.38;64.81;101449.28;5095402;28;20084;-64
2022/08/03 10:15:29;;;;;;;1.83;1.73;;;27.10;99.90;;;27.50;64.11;101467.53;5095486;28;20090;-64
2022/08/03 10:18:19;;;;;;;1.80;1.73;;;27.10;99.90;;;27.51;62.94;101463.81;5095451;28;20036;-64
2022/08/03 10:20:53;;;;;;;1.63;1.63;;;27.20;99.90;;;27.63;62.24;101468.47;5095428;28;20039;-64
2022/08/03 10:23:23;;;;;;;1.40;1.40;;;27.30;99.90;;;27.60;62.13;101458.66;5095314;28;20282;-64
2022/08/03 10:25:58;;;;;;;1.58;1.58;;;27.30;99.90;;;27.75;62.64;101461.34;5094559;28;20044;-64
2022/08/03 10:28:35;;;;;;;1.75;1.65;;;27.40;99.90;;;27.84;61.62;101452.56;5095329;28;20040;-64
2022/08/03 10:31:08;;;;;;;1.90;1.80;;;27.50;99.90;;;27.85;61.30;101467.94;5095232;28;20561;-65
2022/08/03 10:33:42;;;;;;;37.55;4.72;;;27.60;99.90;;;27.83;61.05;101459.00;5095312;28;20152;-64
2022/08/03 10:36:24;;;;;;;2.55;2.45;;;27.50;99.90;;;27.72;61.19;101451.53;5077241;28;20523;-65
2022/08/03 10:38:55;;;;;;;1.70;1.60;;;27.40;99.90;;;27.82;62.06;101459.94;5095314;28;20044;-65
2022/08/03 10:41:31;;;;;;;1.48;1.48;;;27.50;99.90;;;27.94;61.84;101456.41;5094851;28;20059;-64
2022/08/03 10:44:06;;;;;;;1.70;1.70;;;27.50;99.90;;;27.99;61.51;101454.31;5095112;28;20233;-65